Time;durP1;ratioP1;P1;durP2;ratioP2;P2;SDS_P1;SDS_P2;PMS_P1;PMS_P2;Temp;Humidity;BMP_temperature;BMP_pressure;BME280_temperature;BME280_humidity;BME280_pressure;Samples;Min_cycle;Max_cycle;Signal;HPM_P1;HPM_P2
2022/03/03 00:01:25;;;;;;;0.80;0.80;;;;;;;5.86;48.48;101455.38;5231626;28;20041;-77
2022/03/03 00:03:56;;;;;;;2.20;1.83;;;;;;;5.84;48.44;101444.06;5236877;28;20039;-76
2022/03/03 00:06:27;;;;;;;2.22;2.05;;;;;;;5.83;48.33;101452.75;5224292;28;20047;-79
2022/03/03 00:08:58;;;;;;;0.80;0.80;;;;;;;5.81;47.84;101447.53;5227244;28;20021;-78
2022/03/03 00:11:30;;;;;;;0.80;0.80;;;;;;;5.87;48.06;101446.69;5213523;28;20073;-77
2022/03/03 00:14:00;;;;;;;0.40;0.40;;;;;;;5.79;47.72;101449.25;5230427;28;20032;-78
2022/03/03 00:16:31;;;;;;;0.88;0.88;;;;;;;5.79;48.29;101449.25;5213718;28;20069;-76
2022/03/03 00:19:02;;;;;;;0.82;0.82;;;;;;;5.75;48.04;101447.50;5213832;28;20040;-79
2022/03/03 00:21:34;;;;;;;1.77;1.67;;;;;;;5.72;48.14;101441.44;5232694;28;20032;-76
2022/03/03 00:24:07;;;;;;;0.80;0.80;;;;;;;5.70;48.01;101440.53;5197657;28;20041;-77
2022/03/03 00:26:38;;;;;;;1.25;1.25;;;;;;;5.69;47.76;101447.50;5234667;28;20046;-77
2022/03/03 00:29:09;;;;;;;1.23;1.20;;;;;;;5.64;48.46;101446.59;5241892;28;20025;-77
2022/03/03 00:31:40;;;;;;;2.58;0.95;;;;;;;5.62;49.02;101445.72;5230597;28;20101;-79
2022/03/03 00:34:11;;;;;;;1.30;1.17;;;;;;;5.66;48.15;101450.06;5228818;28;20033;-79
2022/03/03 00:36:44;;;;;;;0.60;0.60;;;;;;;5.61;48.20;101449.19;5239518;28;20775;-77
2022/03/03 00:39:15;;;;;;;1.77;1.67;;;;;;;5.60;48.57;101448.31;5246905;28;20032;-78
2022/03/03 00:41:46;;;;;;;1.00;1.00;;;;;;;5.48;48.47;101432.63;5231722;28;20654;-78
2022/03/03 00:44:17;;;;;;;0.20;0.20;;;;;;;5.52;48.78;101439.59;5231716;28;20024;-79
2022/03/03 00:46:47;;;;;;;0.63;0.63;;;;;;;5.50;48.67;101431.78;5229076;28;20032;-78
2022/03/03 00:49:20;;;;;;;2.05;1.13;;;;;;;5.45;48.48;101427.41;5203785;28;20059;-77
2022/03/03 00:51:51;;;;;;;0.82;0.82;;;;;;;5.44;47.95;101423.94;5212504;28;20131;-79
2022/03/03 00:54:21;;;;;;;1.33;1.23;;;;;;;5.43;48.92;101423.91;5238595;28;20075;-79
2022/03/03 00:56:52;;;;;;;1.70;1.48;;;;;;;5.40;48.56;101421.31;5214345;28;20028;-77
2022/03/03 00:59:23;;;;;;;1.42;1.33;;;;;;;5.33;49.42;101420.41;5232045;28;20052;-78
2022/03/03 01:02:40;;;;;;;1.52;1.42;;;;;;;5.39;48.83;101419.56;5230038;28;20036;-77
2022/03/03 01:05:17;;;;;;;13.48;1.75;;;;;;;5.32;48.74;101419.53;5195384;28;20123;-79
2022/03/03 01:08:11;;;;;;;0.88;0.88;;;;;;;5.30;49.17;101417.75;5245756;28;20036;-78
2022/03/03 01:10:44;;;;;;;;;;;;;;;5.31;48.68;101419.50;5208228;28;20044;-79
2022/03/03 01:13:15;;;;;;;1.35;1.20;;;;;;;5.25;49.24;101417.72;5238848;28;19977;-76
2022/03/03 01:15:49;;;;;;;2.33;2.13;;;;;;;5.24;49.07;101416.03;5220753;28;20041;-79
2022/03/03 01:18:20;;;;;;;0.73;0.73;;;;;;;5.19;49.35;101415.09;5214424;28;20047;-79
2022/03/03 01:20:52;;;;;;;0.88;0.88;;;;;;;5.20;49.13;101411.66;5201762;28;20033;-77
2022/03/03 01:23:22;;;;;;;1.30;1.25;;;;;;;5.17;49.33;101411.63;5200753;28;20118;-78
2022/03/03 01:25:56;;;;;;;1.58;1.48;;;;;;;5.14;49.49;101409.00;5212684;28;20030;-79
2022/03/03 01:28:26;;;;;;;0.60;0.60;;;;;;;5.11;48.96;101406.38;5209662;28;20024;-78
2022/03/03 01:30:57;;;;;;;1.08;1.08;;;;;;;5.11;49.25;101411.56;5221872;28;20053;-77
2022/03/03 01:33:27;;;;;;;1.00;1.00;;;;;;;5.08;49.24;101401.19;5233246;28;20071;-79
2022/03/03 01:36:00;;;;;;;1.58;1.48;;;;;;;5.01;49.10;101400.25;5192229;28;20128;-77
2022/03/03 01:38:31;;;;;;;2.63;1.90;;;;;;;4.96;49.36;101401.97;5223658;28;20036;-78
2022/03/03 01:41:02;;;;;;;1.05;1.05;;;;;;;4.93;49.31;101400.19;5211024;28;20037;-78
2022/03/03 01:43:32;;;;;;;0.85;0.85;;;;;;;4.91;49.26;101396.72;5197312;28;20085;-78
2022/03/03 01:46:08;;;;;;;1.63;1.40;;;;;;;4.85;49.41;101397.53;5208453;28;20036;-79
2022/03/03 01:48:39;;;;;;;0.60;0.60;;;;;;;4.82;49.11;101399.25;5199610;28;20185;-78
2022/03/03 01:51:12;;;;;;;;;;;;;;;4.61;49.77;101392.16;5216534;28;20757;-78
2022/03/03 01:53:43;;;;;;;0.80;0.80;;;;;;;4.66;48.96;101399.13;5257248;28;19955;-77
2022/03/03 01:56:14;;;;;;;1.15;1.15;;;;;;;4.65;48.70;101400.00;5193728;28;20043;-77
2022/03/03 01:58:45;;;;;;;0.52;0.52;;;;;;;4.64;48.83;101395.66;5213090;28;20053;-79
2022/03/03 02:01:16;;;;;;;1.77;1.67;;;;;;;4.67;48.96;101394.78;5228204;28;20173;-77
2022/03/03 02:03:49;;;;;;;1.30;1.27;;;;;;;4.53;48.53;101389.47;5198230;28;20032;-78
2022/03/03 02:06:21;;;;;;;1.58;1.55;;;;;;;4.63;48.43;101386.09;5212699;28;20064;-78
2022/03/03 02:08:54;;;;;;;0.98;0.95;;;;;;;4.62;48.86;101381.75;5207185;28;20059;-79
2022/03/03 02:11:30;;;;;;;;;;;;;;;4.28;47.84;101383.19;5210968;28;20055;-79
2022/03/03 02:14:07;;;;;;;0.73;0.73;;;;;;;4.52;48.82;101379.94;5231708;28;20015;-78
2022/03/03 02:16:40;;;;;;;1.50;1.40;;;;;;;4.43;48.40;101375.53;5212346;28;20887;-78
2022/03/03 02:19:21;;;;;;;1.40;1.33;;;;;;;4.50;48.34;101374.72;5220177;28;20037;-77
2022/03/03 02:21:54;;;;;;;0.63;0.63;;;;;;;4.55;48.10;101374.78;5212564;28;20032;-79
2022/03/03 02:24:51;;;;;;;0.85;0.85;;;;;;;4.64;48.67;101374.84;5239916;28;20047;-77
2022/03/03 02:27:24;;;;;;;1.85;1.75;;;;;;;4.67;47.83;101379.19;5234076;28;20036;-78
2022/03/03 02:29:55;;;;;;;0.70;0.70;;;;;;;4.61;48.57;101363.56;5229862;28;20466;-78
2022/03/03 02:32:26;;;;;;;0.50;0.50;;;;;;;4.68;48.35;101370.53;5217401;28;20267;-78
2022/03/03 02:34:57;;;;;;;1.17;1.17;;;;;;;4.63;48.11;101367.91;5228786;28;20044;-79
2022/03/03 02:37:39;;;;;;;0.68;0.68;;;;;;;4.60;48.53;101362.66;5218748;28;20028;-79
2022/03/03 02:40:12;;;;;;;1.05;1.05;;;;;;;4.57;48.99;101357.47;5234657;28;20032;-78
2022/03/03 02:42:43;;;;;;;;;;;;;;;4.63;48.58;101354.06;5232357;28;20028;-79
2022/03/03 02:45:13;;;;;;;1.60;1.40;;;;;;;4.59;48.10;101350.53;5234903;28;19946;-78
2022/03/03 02:47:45;;;;;;;0.50;0.50;;;;;;;4.54;48.39;101347.03;5246854;28;20028;-78
2022/03/03 02:50:30;;;;;;;1.50;1.40;;;;;;;4.51;48.20;101341.81;5240307;28;20085;-79
2022/03/03 02:53:05;;;;;;;0.60;0.60;;;;;;;4.48;48.47;101344.41;5230780;28;20034;-77
2022/03/03 02:55:36;;;;;;;1.55;1.45;;;;;;;4.46;48.37;101348.69;5201965;28;20075;-79
2022/03/03 02:58:07;;;;;;;1.48;1.45;;;;;;;4.36;48.21;101346.03;5195039;28;20032;-78
2022/03/03 03:00:43;;;;;;;1.38;1.27;;;;;;;4.50;48.37;101345.28;5221348;28;20105;-75
2022/03/03 03:03:14;;;;;;;0.60;0.60;;;;;;;4.49;48.30;101339.19;5234262;28;20102;-76
2022/03/03 03:05:46;;;;;;;0.70;0.70;;;;;;;4.51;48.12;101339.19;5239311;28;20046;-78
2022/03/03 03:08:17;;;;;;;2.72;2.15;;;;;;;4.57;47.51;101336.69;5222091;28;20119;-78
2022/03/03 03:10:47;;;;;;;1.08;1.08;;;;;;;4.56;47.85;101334.94;5200430;28;20701;-78
2022/03/03 03:13:18;;;;;;;1.25;1.25;;;;;;;4.60;47.68;101331.47;5225898;28;20048;-79
2022/03/03 03:15:51;;;;;;;2.33;2.15;;;;;;;4.59;47.60;101337.53;5229409;28;20073;-79
2022/03/03 03:18:22;;;;;;;1.05;1.05;;;;;;;4.59;47.66;101334.94;5231795;28;20062;-79
2022/03/03 03:20:56;;;;;;;0.30;0.30;;;;;;;4.49;47.73;101338.34;5225469;28;20110;-78
2022/03/03 03:23:29;;;;;;;;;;;;;;;4.56;47.60;101330.59;5211668;28;20127;-79
2022/03/03 03:25:59;;;;;;;2.53;2.05;;;;;;;4.54;47.99;101327.13;5248166;28;19917;-77
2022/03/03 03:28:33;;;;;;;2.33;1.65;;;;;;;4.59;48.08;101328.88;5246629;28;20024;-77
2022/03/03 03:31:04;;;;;;;1.90;1.80;;;;;;;4.54;47.83;101327.13;5247934;28;20033;-78
2022/03/03 03:33:35;;;;;;;8.30;2.13;;;;;;;4.49;47.89;101327.94;5231054;28;20089;-77
2022/03/03 03:36:05;;;;;;;0.43;0.43;;;;;;;4.39;48.98;101324.38;5195503;28;20067;-78
2022/03/03 03:38:42;;;;;;;0.30;0.30;;;;;;;4.50;48.19;101324.50;5223528;28;20057;-78
2022/03/03 03:41:13;;;;;;;2.75;1.88;;;;;;;4.42;48.46;101324.41;5204416;28;20076;-77
2022/03/03 03:43:43;;;;;;;1.30;1.23;;;;;;;4.50;47.99;101314.97;5208511;28;20040;-77
2022/03/03 03:46:14;;;;;;;1.40;1.30;;;;;;;4.53;47.70;101317.59;5207002;28;20039;-78
2022/03/03 03:48:44;;;;;;;0.55;0.55;;;;;;;4.50;48.09;101312.34;5224445;28;20029;-76
2022/03/03 03:51:15;;;;;;;0.40;0.40;;;;;;;4.45;47.66;101316.66;5218513;28;20029;-78
2022/03/03 03:53:46;;;;;;;1.25;1.23;;;;;;;4.41;47.95;101309.69;5213759;28;20032;-78
2022/03/03 03:56:16;;;;;;;0.88;0.88;;;;;;;4.36;48.15;101309.66;5228180;28;20048;-78
2022/03/03 03:58:47;;;;;;;1.77;1.65;;;;;;;4.37;47.85;101311.38;5240995;28;20062;-76
2022/03/03 04:01:17;;;;;;;0.60;0.60;;;;;;;4.30;48.37;101309.59;5226307;28;20111;-77
2022/03/03 04:03:48;;;;;;;1.13;1.08;;;;;;;4.33;47.62;101312.25;5208062;28;20032;-76
2022/03/03 04:06:19;;;;;;;0.98;0.98;;;;;;;4.34;48.14;101308.75;5211194;28;20028;-79
2022/03/03 04:08:52;;;;;;;0.63;0.63;;;;;;;4.36;47.85;101316.59;5210891;28;20080;-77
2022/03/03 04:11:23;;;;;;;0.68;0.68;;;;;;;4.28;48.37;101313.91;5252280;28;20067;-79
2022/03/03 04:13:57;;;;;;;1.17;1.08;;;;;;;4.29;48.50;101310.47;5216158;28;20187;-77
2022/03/03 04:16:27;;;;;;;0.55;0.55;;;;;;;4.27;47.60;101316.50;5218378;28;20115;-77
2022/03/03 04:18:58;;;;;;;1.30;1.30;;;;;;;4.27;48.36;101312.16;5213799;28;20040;-77
2022/03/03 04:21:31;;;;;;;2.05;1.95;;;;;;;4.15;47.62;101301.69;5214400;28;20067;-78
2022/03/03 04:24:02;;;;;;;0.57;0.57;;;;;;;4.27;47.87;101300.91;5236661;28;20039;-79
2022/03/03 04:26:35;;;;;;;1.85;1.30;;;;;;;4.24;48.65;101301.78;5222178;28;20030;-79
2022/03/03 04:29:11;;;;;;;;;;;;;;;4.19;48.89;101300.84;5211682;28;20734;-79
2022/03/03 04:31:45;;;;;;;0.52;0.52;;;;;;;4.24;47.74;101296.56;5216467;28;19918;-76
2022/03/03 04:34:21;;;;;;;0.30;0.30;;;;;;;4.25;48.80;101293.97;5200373;28;20078;-78
2022/03/03 04:36:52;;;;;;;9.13;2.67;;;;;;;4.21;48.32;101292.22;5229121;28;20042;-79
2022/03/03 04:39:23;;;;;;;1.20;1.20;;;;;;;4.21;47.92;101289.63;5206193;28;20048;-79
2022/03/03 04:41:53;;;;;;;2.72;2.53;;;;;;;4.20;48.69;101289.59;5213166;28;20033;-79
2022/03/03 04:44:27;;;;;;;;;;;;;;;4.19;48.27;101282.66;5190730;28;20043;-78
2022/03/03 04:47:03;;;;;;;4.05;1.35;;;;;;;4.16;47.72;101280.91;5209926;28;19912;-78
2022/03/03 04:49:51;;;;;;;0.40;0.40;;;;;;;4.18;48.33;101286.09;5193419;28;20056;-78
2022/03/03 04:52:22;;;;;;;3.50;1.90;;;;;;;4.08;48.52;101283.47;5195330;28;20032;-79
2022/03/03 04:54:57;;;;;;;0.40;0.40;;;;;;;4.04;49.19;101271.28;5219356;28;20041;-78
2022/03/03 04:57:28;;;;;;;1.40;1.40;;;;;;;4.01;48.80;101270.41;5210562;28;20172;-78
2022/03/03 04:59:58;;;;;;;1.50;1.33;;;;;;;4.02;48.50;101269.53;5211852;28;20140;-78
2022/03/03 05:02:32;;;;;;;1.27;1.27;;;;;;;4.08;48.29;101262.69;5230776;28;20036;-77
2022/03/03 05:05:07;;;;;;;1.25;1.25;;;;;;;4.00;47.95;101261.75;5208190;28;20055;-79
2022/03/03 05:07:40;;;;;;;1.02;0.98;;;;;;;3.90;48.35;101254.72;5200698;28;20028;-78
2022/03/03 05:10:10;;;;;;;0.63;0.63;;;;;;;3.86;48.22;101251.22;5204431;28;20567;-79
2022/03/03 05:12:41;;;;;;;0.65;0.65;;;;;;;3.81;48.46;101247.69;5250855;28;20769;-79
2022/03/03 05:15:16;;;;;;;1.20;1.20;;;;;;;3.94;48.75;101252.16;5213250;28;20055;-79
2022/03/03 05:17:47;;;;;;;1.42;1.40;;;;;;;3.94;48.11;101251.28;5221583;28;20036;-77
2022/03/03 05:20:17;;;;;;;1.17;1.10;;;;;;;3.99;48.58;101254.81;5230077;28;20041;-76
2022/03/03 05:22:49;;;;;;;0.40;0.40;;;;;;;3.96;48.13;101248.72;5234072;28;20091;-76
2022/03/03 05:25:20;;;;;;;0.40;0.40;;;;;;;4.00;48.38;101248.75;5258617;28;20648;-75
2022/03/03 05:27:54;;;;;;;0.60;0.60;;;;;;;4.00;48.43;101248.75;5249780;28;20044;-78
2022/03/03 05:30:24;;;;;;;;;;;;;;;3.94;48.01;101251.28;5228470;28;20037;-76
2022/03/03 05:32:55;;;;;;;0.60;0.60;;;;;;;4.00;48.13;101256.56;5214167;28;19912;-78
2022/03/03 05:35:26;;;;;;;1.23;1.20;;;;;;;3.94;48.33;101256.47;5249637;28;20075;-78
2022/03/03 05:37:56;;;;;;;2.97;2.17;;;;;;;3.99;48.52;101254.81;5229195;28;20041;-77
2022/03/03 05:40:32;;;;;;;1.65;1.55;;;;;;;3.94;48.80;101261.66;5194552;28;20062;-77
2022/03/03 05:43:03;;;;;;;1.48;1.45;;;;;;;3.81;48.15;101265.88;5213872;28;20033;-77
2022/03/03 05:45:34;;;;;;;3.22;2.35;;;;;;;3.80;49.46;101264.16;5200997;28;20078;-77
2022/03/03 05:48:04;;;;;;;1.60;1.50;;;;;;;3.77;48.97;101270.16;5213028;28;20090;-76
2022/03/03 05:50:35;;;;;;;1.83;1.73;;;;;;;3.87;48.43;101260.75;5221869;28;20040;-77
2022/03/03 05:53:06;;;;;;;0.40;0.40;;;;;;;3.82;48.93;101266.75;5212972;28;20096;-75
2022/03/03 05:55:52;;;;;;;1.35;1.25;;;;;;;3.90;49.28;101265.09;5220831;28;20053;-77
2022/03/03 05:58:27;;;;;;;0.60;0.60;;;;;;;3.88;48.76;101261.63;5221764;28;20148;-79
2022/03/03 06:01:01;;;;;;;0.60;0.60;;;;;;;3.97;48.63;101260.84;5236481;28;20084;-76
2022/03/03 06:03:34;;;;;;;1.52;1.42;;;;;;;3.96;48.78;101253.91;5216786;28;20035;-81
2022/03/03 06:06:12;;;;;;;2.67;1.58;;;;;;;3.99;48.95;101260.00;5231795;28;20033;-79
2022/03/03 06:08:59;;;;;;;0.77;0.77;;;;;;;3.82;49.56;101261.56;5233782;28;20036;-80
2022/03/03 06:11:30;;;;;;;0.63;0.63;;;;;;;3.93;49.23;101257.31;5208323;28;20097;-78
2022/03/03 06:14:06;;;;;;;0.95;0.95;;;;;;;3.90;48.78;101255.59;5243801;28;20033;-80
2022/03/03 06:16:42;;;;;;;0.40;0.40;;;;;;;3.75;48.58;101258.94;5205237;28;20100;-79
2022/03/03 06:19:14;;;;;;;1.02;1.02;;;;;;;3.85;48.75;101261.56;5201289;28;20037;-77
2022/03/03 06:21:48;;;;;;;0.68;0.65;;;;;;;3.87;48.51;101255.56;5226816;28;20033;-76
2022/03/03 06:24:18;;;;;;;9.52;1.50;;;;;;;3.95;48.71;101260.81;5213926;28;20069;-76
2022/03/03 06:26:49;;;;;;;1.02;0.95;;;;;;;3.96;48.43;101265.16;5228034;28;20056;-79
2022/03/03 06:29:19;;;;;;;4.22;2.47;;;;;;;3.94;48.36;101269.47;5251983;28;20177;-79
2022/03/03 06:31:50;;;;;;;3.15;2.35;;;;;;;3.90;48.32;101280.69;5212622;28;20025;-79
2022/03/03 06:34:20;;;;;;;0.95;0.93;;;;;;;3.88;48.66;101279.78;5231011;28;20033;-79
2022/03/03 06:36:51;;;;;;;0.43;0.43;;;;;;;3.95;48.85;101279.00;5213528;28;20037;-79
2022/03/03 06:39:26;;;;;;;1.58;1.48;;;;;;;3.88;48.38;101279.78;5206253;28;20032;-78
2022/03/03 06:41:57;;;;;;;0.88;0.88;;;;;;;3.84;48.77;101285.81;5211409;28;20382;-78
2022/03/03 06:44:33;;;;;;;0.52;0.52;;;;;;;3.66;49.04;101284.78;5201017;28;20586;-79
2022/03/03 06:47:11;;;;;;;1.02;1.02;;;;;;;3.74;48.49;101284.84;5212254;28;20037;-79
2022/03/03 06:49:42;;;;;;;0.50;0.50;;;;;;;3.39;50.37;101287.94;5241501;28;20040;-78
2022/03/03 06:52:15;;;;;;;3.95;1.25;;;;;;;3.48;49.47;101282.84;5215207;28;20028;-78
2022/03/03 06:54:51;;;;;;;1.33;1.30;;;;;;;3.37;50.00;101284.47;5227377;28;20040;-78
2022/03/03 06:57:23;;;;;;;1.67;1.58;;;;;;;3.53;49.04;101286.38;5216790;28;20039;-76
2022/03/03 06:59:59;;;;;;;0.77;0.77;;;;;;;3.21;50.38;101284.28;5231780;28;20070;-76
2022/03/03 07:02:31;;;;;;;0.80;0.80;;;;;;;2.80;51.90;101293.22;5255581;28;20028;-80
2022/03/03 07:05:02;;;;;;;1.73;1.63;;;;;;;2.84;51.65;101281.19;5228275;28;20593;-78
2022/03/03 07:07:34;;;;;;;1.05;1.05;;;;;;;2.82;51.69;101288.06;5228144;28;20036;-78
2022/03/03 07:10:05;;;;;;;1.42;1.33;;;;;;;3.11;51.10;101272.91;5239950;28;20665;-79
2022/03/03 07:12:36;;;;;;;0.70;0.70;;;;;;;2.80;51.76;101287.19;5211898;28;20020;-79
2022/03/03 07:15:08;;;;;;;0.80;0.80;;;;;;;2.85;51.43;101295.91;5242819;28;20104;-80
2022/03/03 07:17:47;;;;;;;1.80;1.70;;;;;;;2.75;52.72;101292.31;5237741;28;20143;-79
2022/03/03 07:20:29;;;;;;;1.45;1.45;;;;;;;2.99;51.14;101288.31;5229213;28;20141;-78
2022/03/03 07:23:04;;;;;;;2.28;1.45;;;;;;;3.16;50.64;101280.75;5241509;28;20411;-78
2022/03/03 07:25:41;;;;;;;3.17;1.70;;;;;;;3.20;50.92;101281.66;5192739;28;20060;-79
2022/03/03 07:28:14;;;;;;;1.58;1.20;;;;;;;3.24;50.74;101276.50;5222738;28;20104;-80
2022/03/03 07:30:47;;;;;;;0.52;0.52;;;;;;;3.19;50.99;101277.31;5219853;28;20044;-78
2022/03/03 07:33:36;;;;;;;0.63;0.63;;;;;;;3.22;50.66;101285.13;5239091;28;20036;-78
2022/03/03 07:36:09;;;;;;;1.10;1.10;;;;;;;3.24;50.28;101283.44;5208888;28;20044;-78
2022/03/03 07:38:41;;;;;;;0.70;0.70;;;;;;;3.33;50.59;101288.75;5239079;28;20423;-78
2022/03/03 07:41:12;;;;;;;0.82;0.82;;;;;;;3.29;50.28;101277.47;5237801;28;20047;-78
2022/03/03 07:43:42;;;;;;;0.73;0.70;;;;;;;3.28;50.83;101285.19;5237453;28;20417;-79
2022/03/03 07:46:14;;;;;;;2.40;2.22;;;;;;;3.30;50.50;101280.91;5240531;28;20522;-77
2022/03/03 07:48:46;;;;;;;1.65;1.55;;;;;;;3.35;50.70;101280.97;5246310;28;20469;-77
2022/03/03 07:51:18;;;;;;;2.25;1.70;;;;;;;3.39;50.88;101282.75;5213311;28;20040;-78
2022/03/03 07:53:49;;;;;;;1.35;1.35;;;;;;;3.42;50.63;101295.75;5257541;28;20221;-79
2022/03/03 07:56:37;;;;;;;0.45;0.45;;;;;;;3.39;50.66;101288.81;5224088;28;20426;-78
2022/03/03 07:59:12;;;;;;;0.95;0.95;;;;;;;3.36;50.97;101293.09;5219189;28;20037;-77
2022/03/03 08:01:44;;;;;;;0.82;0.82;;;;;;;3.37;50.54;101295.69;5186512;28;20021;-78
2022/03/03 08:04:16;;;;;;;0.70;0.70;;;;;;;3.44;50.46;101302.69;5212821;28;20123;-77
2022/03/03 08:06:48;;;;;;;5.10;2.53;;;;;;;3.47;50.75;101301.88;5219866;28;20033;-78
2022/03/03 08:09:22;;;;;;;1.13;1.13;;;;;;;3.65;50.04;101296.00;5214353;28;20041;-76
2022/03/03 08:11:53;;;;;;;2.22;2.05;;;;;;;3.49;50.34;101294.09;5194356;28;20038;-76
2022/03/03 08:14:24;;;;;;;2.75;2.47;;;;;;;3.37;51.15;101293.09;5208636;28;20056;-76
2022/03/03 08:16:54;;;;;;;1.73;1.48;;;;;;;3.55;50.61;101294.16;5221433;28;20033;-78
2022/03/03 08:19:25;;;;;;;0.80;0.80;;;;;;;3.57;50.31;101295.91;5208877;28;20045;-75
2022/03/03 08:21:56;;;;;;;0.43;0.43;;;;;;;3.68;50.22;101301.22;5188902;28;20044;-77
2022/03/03 08:24:27;;;;;;;1.05;1.05;;;;;;;3.57;50.40;101302.84;5200530;28;20156;-78
2022/03/03 08:26:58;;;;;;;13.25;3.33;;;;;;;3.60;50.30;101297.66;5232713;28;20138;-77
2022/03/03 08:29:28;;;;;;;1.35;1.30;;;;;;;3.57;50.55;101300.25;5226969;28;20068;-74
2022/03/03 08:32:02;;;;;;;0.50;0.50;;;;;;;3.72;50.07;101295.22;5203556;28;20182;-77
2022/03/03 08:34:57;;;;;;;0.50;0.50;;;;;;;3.68;49.86;101305.56;5194015;28;20119;-77
2022/03/03 08:37:33;;;;;;;1.98;1.20;;;;;;;3.78;50.26;101308.25;5228398;28;20031;-77
2022/03/03 08:40:10;;;;;;;2.55;2.35;;;;;;;3.83;50.18;101315.22;5238926;28;20053;-76
2022/03/03 08:42:48;;;;;;;0.73;0.73;;;;;;;3.95;49.94;101315.34;5228088;28;20039;-79
2022/03/03 08:45:23;;;;;;;0.38;0.38;;;;;;;3.97;49.41;101310.19;5241398;28;20099;-79
2022/03/03 08:48:15;;;;;;;1.17;1.17;;;;;;;3.83;49.37;101310.03;5211317;28;20033;-76
2022/03/03 08:50:48;;;;;;;1.40;1.38;;;;;;;3.87;49.15;101306.59;5205867;28;20045;-76
2022/03/03 08:53:19;;;;;;;0.95;0.95;;;;;;;3.82;49.66;101300.50;5243281;28;20032;-79
2022/03/03 08:55:58;;;;;;;6.70;1.25;;;;;;;3.86;48.89;101299.66;5218923;28;20045;-78
2022/03/03 08:58:56;;;;;;;2.10;1.95;;;;;;;4.00;49.06;101298.09;5232224;28;20090;-77
2022/03/03 09:01:29;;;;;;;3.67;2.30;;;;;;;3.97;48.82;101303.25;5211193;28;20082;-77
2022/03/03 09:04:09;;;;;;;0.63;0.63;;;;;;;3.99;48.69;101296.34;5223604;28;20434;-78
2022/03/03 09:06:39;;;;;;;1.08;1.08;;;;;;;4.04;48.63;101288.59;5229644;28;20513;-76
2022/03/03 09:09:13;;;;;;;1.30;1.30;;;;;;;4.07;49.55;101288.63;5231706;28;20056;-77
2022/03/03 09:11:43;;;;;;;1.77;1.67;;;;;;;4.17;49.16;101292.19;5226086;28;20066;-75
2022/03/03 09:14:16;;;;;;;2.65;1.88;;;;;;;4.26;48.98;101281.84;5232933;28;20732;-77
2022/03/03 09:16:47;;;;;;;0.63;0.63;;;;;;;4.30;49.14;101290.56;5209584;28;20033;-77
2022/03/03 09:19:18;;;;;;;1.20;1.20;;;;;;;4.29;49.57;101289.69;5181362;28;20861;-76
2022/03/03 09:21:48;;;;;;;1.05;1.05;;;;;;;4.52;49.35;101291.56;5211046;28;20033;-77
2022/03/03 09:24:19;;;;;;;1.95;1.85;;;;;;;4.48;49.86;101295.03;5242384;28;20058;-77
2022/03/03 09:26:51;;;;;;;0.77;0.77;;;;;;;4.56;49.46;101295.94;5225636;28;20048;-76
2022/03/03 09:29:22;;;;;;;0.68;0.68;;;;;;;4.50;50.50;101299.38;5206755;28;20033;-77
2022/03/03 09:31:52;;;;;;;0.68;0.68;;;;;;;4.63;49.64;101295.13;5243462;28;20036;-77
2022/03/03 09:34:23;;;;;;;1.10;1.10;;;;;;;4.63;49.47;101300.31;5226883;28;20054;-77
2022/03/03 09:36:58;;;;;;;0.32;0.32;;;;;;;4.77;49.60;101296.94;5246846;28;20043;-76
2022/03/03 09:39:31;;;;;;;9.02;2.95;;;;;;;4.75;49.61;101303.88;5242994;28;20679;-75
2022/03/03 09:42:02;;;;;;;1.15;1.15;;;;;;;4.73;49.71;101302.13;5253272;28;20020;-75
2022/03/03 09:44:33;;;;;;;0.70;0.70;;;;;;;4.76;49.44;101295.19;5258340;28;20047;-76
2022/03/03 09:47:03;;;;;;;2.28;2.08;;;;;;;4.77;49.45;101292.63;5231130;28;20028;-76
2022/03/03 09:49:34;;;;;;;1.77;1.67;;;;;;;4.77;50.20;101290.03;5195650;28;20044;-75
2022/03/03 09:52:15;;;;;;;0.40;0.40;;;;;;;4.85;49.30;101280.53;5239988;28;20040;-75
2022/03/03 09:54:54;;;;;;;1.48;1.38;;;;;;;4.96;49.53;101282.34;5244090;28;20047;-77
2022/03/03 09:57:24;;;;;;;0.65;0.65;;;;;;;4.99;50.00;101283.22;5213886;28;20078;-77
2022/03/03 09:59:57;;;;;;;1.35;1.30;;;;;;;5.14;49.96;101281.53;5251831;28;20025;-75
2022/03/03 10:02:27;;;;;;;3.45;1.85;;;;;;;5.11;49.75;101278.91;5248918;28;20024;-78
2022/03/03 10:05:15;;;;;;;2.35;2.17;;;;;;;5.18;49.53;101278.97;5246476;28;20036;-78
2022/03/03 10:08:03;;;;;;;1.83;1.45;;;;;;;5.24;49.87;101272.03;5232101;28;20091;-78
2022/03/03 10:10:35;;;;;;;0.98;0.98;;;;;;;5.35;49.03;101272.94;5209949;28;20192;-77
2022/03/03 10:13:06;;;;;;;0.80;0.80;;;;;;;5.29;49.23;101265.97;5233443;28;20046;-76
2022/03/03 10:15:37;;;;;;;0.98;0.98;;;;;;;5.30;49.64;101256.44;5214702;28;20593;-78
2022/03/03 10:18:12;;;;;;;2.35;2.22;;;;;;;5.46;48.92;101265.16;5235786;28;20036;-76
2022/03/03 10:20:49;;;;;;;5.43;1.83;;;;;;;5.44;48.63;101270.38;5208666;28;20032;-79
2022/03/03 10:23:34;;;;;;;5.68;1.33;;;;;;;5.56;48.75;101259.13;5208615;28;20115;-78
2022/03/03 10:26:08;;;;;;;3.65;2.10;;;;;;;5.57;48.50;101271.28;5187627;28;20170;-77
2022/03/03 10:28:38;;;;;;;3.00;1.95;;;;;;;5.73;48.18;101268.72;5211587;28;20033;-79
2022/03/03 10:31:13;;;;;;;2.17;0.88;;;;;;;5.81;48.64;101264.38;5221119;28;20053;-76
2022/03/03 10:33:49;;;;;;;1.25;1.20;;;;;;;5.87;47.50;101264.38;5222998;28;20033;-78
2022/03/03 10:36:22;;;;;;;1.00;0.70;;;;;;;5.89;48.16;101260.06;5230550;28;20036;-78
2022/03/03 10:38:55;;;;;;;2.00;1.85;;;;;;;6.04;46.90;101268.78;5243295;28;20020;-77
2022/03/03 10:41:29;;;;;;;1.63;1.52;;;;;;;6.14;46.93;101260.94;5230560;28;20273;-76
2022/03/03 10:44:01;;;;;;;;;;;;;;;6.13;46.57;101263.56;5216210;28;20036;-78
2022/03/03 10:46:35;;;;;;;;;;;;;;;6.13;47.10;101263.56;5210544;28;19976;-77
2022/03/03 10:49:24;;;;;;;2.20;2.03;;;;;;;6.25;47.60;101260.94;5197859;28;19920;-76
2022/03/03 10:52:28;;;;;;;2.45;2.25;;;;;;;6.33;46.87;101267.88;5193061;28;20039;-76
2022/03/03 10:55:10;;;;;;;2.10;2.00;;;;;;;6.45;47.47;101247.03;5208941;28;20045;-77
2022/03/03 10:57:43;;;;;;;1.58;1.38;;;;;;;6.39;47.73;101249.66;5224586;28;20041;-77
2022/03/03 11:00:19;;;;;;;0.75;0.75;;;;;;;6.65;45.95;101240.91;5228330;28;20056;-77
2022/03/03 11:02:55;;;;;;;1.48;1.38;;;;;;;6.57;46.97;101249.59;5211723;28;20036;-77
2022/03/03 11:05:29;;;;;;;1.33;1.23;;;;;;;6.68;45.86;101246.09;5212569;28;20059;-77
2022/03/03 11:07:59;;;;;;;2.10;2.00;;;;;;;6.70;44.95;101239.16;5233307;28;20082;-77
2022/03/03 11:10:31;;;;;;;2.38;1.67;;;;;;;6.74;46.16;101241.75;5232603;28;20114;-78
2022/03/03 11:13:02;;;;;;;3.25;2.95;;;;;;;6.83;46.11;101238.25;5211941;28;20399;-78
2022/03/03 11:15:34;;;;;;;0.93;0.93;;;;;;;7.10;46.19;101241.63;5193376;28;20581;-79
2022/03/03 11:18:04;;;;;;;4.32;3.92;;;;;;;7.11;44.68;101243.38;5241020;28;20032;-77
2022/03/03 11:20:38;;;;;;;2.55;2.25;;;;;;;7.11;45.15;101240.75;5201109;28;20104;-78
2022/03/03 11:23:12;;;;;;;5.28;2.70;;;;;;;7.14;44.76;101232.03;5212743;28;20048;-76
2022/03/03 11:25:45;;;;;;;;;;;;;;;7.16;44.61;101230.28;5242263;28;20047;-77
2022/03/03 11:28:18;;;;;;;2.33;2.13;;;;;;;7.30;44.15;101230.22;5227653;28;19915;-77
2022/03/03 11:30:51;;;;;;;1.40;1.35;;;;;;;7.41;45.21;101228.41;5221261;28;20033;-77
2022/03/03 11:33:26;;;;;;;1.45;1.27;;;;;;;7.43;45.15;101234.50;5237137;28;20028;-77
2022/03/03 11:36:00;;;;;;;1.70;1.60;;;;;;;7.47;43.84;101237.97;5224668;28;20045;-78
2022/03/03 11:38:45;;;;;;;2.00;1.90;;;;;;;7.53;43.13;101230.06;5232279;28;20369;-77
2022/03/03 11:41:16;;;;;;;0.75;0.75;;;;;;;7.68;44.75;101236.94;5213801;28;20039;-77
2022/03/03 11:43:58;;;;;;;1.60;1.50;;;;;;;7.76;43.08;101227.31;5249768;28;20047;-77
2022/03/03 11:46:44;;;;;;;1.67;1.58;;;;;;;7.71;43.46;101223.88;5222919;28;20036;-78
2022/03/03 11:49:23;;;;;;;1.83;1.48;;;;;;;7.89;44.04;101230.72;5216653;28;20028;-79
2022/03/03 11:52:08;;;;;;;1.52;1.42;;;;;;;8.09;41.93;101214.00;5203350;28;20037;-77
2022/03/03 11:54:41;;;;;;;0.95;0.95;;;;;;;8.12;43.20;101220.06;5222629;28;20056;-76
2022/03/03 11:57:11;;;;;;;1.02;1.02;;;;;;;8.28;42.56;101214.69;5226939;28;20028;-77
2022/03/03 11:59:49;;;;;;;1.48;1.38;;;;;;;8.23;42.65;101211.25;5246315;28;20040;-76
2022/03/03 12:02:31;;;;;;;1.40;1.33;;;;;;;8.42;41.40;101211.97;5245955;28;20056;-77
2022/03/03 12:05:26;;;;;;;2.55;1.95;;;;;;;8.48;42.34;101212.78;5212781;28;20554;-78
2022/03/03 12:08:13;;;;;;;1.08;1.00;;;;;;;8.69;40.01;101215.16;5231280;28;20067;-77